Time;durP1;ratioP1;P1;durP2;ratioP2;P2;SDS_P1;SDS_P2;PMS_P1;PMS_P2;Temp;Humidity;BMP_temperature;BMP_pressure;BME280_temperature;BME280_humidity;BME280_pressure;Samples;Min_cycle;Max_cycle;Signal;HPM_P1;HPM_P2
2023/09/21 00:00:48;;;;;;;16.20;14.10;;;;;;;16.43;100.00;93087.84;5069451;28;20189;-82
2023/09/21 00:03:14;;;;;;;14.10;12.60;;;;;;;16.56;100.00;93092.25;5081874;28;20228;-81
2023/09/21 00:05:40;;;;;;;13.43;12.20;;;;;;;16.55;100.00;93090.72;5092428;28;20189;-81
2023/09/21 00:08:06;;;;;;;13.60;12.23;;;;;;;16.66;100.00;93092.00;5099082;28;20231;-81
2023/09/21 00:10:33;;;;;;;19.20;12.53;;;;;;;16.64;100.00;93094.16;5095250;28;20211;-81
2023/09/21 00:13:00;;;;;;;13.50;12.30;;;;;;;16.68;100.00;93095.13;5098671;28;20219;-79
2023/09/21 00:15:26;;;;;;;14.20;12.70;;;;;;;16.80;100.00;93089.28;5088964;28;20234;-80
2023/09/21 00:17:53;;;;;;;17.07;12.43;;;;;;;16.87;100.00;93087.75;5085550;28;20236;-81
2023/09/21 00:20:28;;;;;;;13.73;11.73;;;;;;;16.88;100.00;93072.72;5069229;28;20178;-81
2023/09/21 00:22:53;;;;;;;14.23;12.23;;;;;;;16.90;100.00;93075.81;5059102;28;20212;-81
2023/09/21 00:25:19;;;;;;;12.33;11.27;;;;;;;17.10;100.00;93091.88;5089402;28;20180;-81
2023/09/21 00:27:45;;;;;;;13.97;12.67;;;;;;;17.08;100.00;93099.31;5089025;28;20235;-82
2023/09/21 00:30:12;;;;;;;14.23;12.90;;;;;;;17.04;100.00;93098.34;5089769;28;20182;-81
2023/09/21 00:32:43;;;;;;;14.27;12.63;;;;;;;17.15;100.00;93097.00;5088903;28;20271;-81
2023/09/21 00:35:10;;;;;;;14.37;11.53;;;;;;;17.19;100.00;93111.16;5071557;28;20181;-81
2023/09/21 00:37:40;;;;;;;14.00;12.47;;;;;;;17.19;100.00;93116.44;5088742;28;20248;-81
2023/09/21 00:40:18;;;;;;;19.10;11.37;;;;;;;17.25;99.71;93109.13;5089066;28;20189;-81
2023/09/21 00:42:44;;;;;;;16.17;12.73;;;;;;;17.29;99.30;93116.13;5088836;28;20184;-79
2023/09/21 00:45:10;;;;;;;12.73;11.40;;;;;;;17.36;98.36;93121.75;5089428;28;20181;-81
2023/09/21 00:47:43;;;;;;;13.93;12.47;;;;;;;17.48;98.20;93129.88;5088366;28;20186;-81
2023/09/21 00:50:12;;;;;;;14.77;11.43;;;;;;;17.42;98.11;93122.38;5083627;28;20185;-80
2023/09/21 00:52:45;;;;;;;20.40;13.23;;;;;;;17.50;99.91;93133.00;5088799;28;20185;-81
2023/09/21 00:55:17;;;;;;;14.73;13.43;;;;;;;17.52;100.00;93125.56;5096313;28;20191;-81
2023/09/21 00:57:45;;;;;;;14.03;12.37;;;;;;;17.42;100.00;93120.53;5102240;28;20248;-80
2023/09/21 01:00:13;;;;;;;13.60;12.27;;;;;;;17.41;100.00;93123.47;5107800;28;20191;-78
2023/09/21 01:02:43;;;;;;;14.63;13.07;;;;;;;17.38;100.00;93118.81;5088465;28;20174;-81
2023/09/21 01:05:17;;;;;;;12.93;11.73;;;;;;;17.35;100.00;93116.78;5089224;28;20170;-81
2023/09/21 01:07:45;;;;;;;14.53;13.10;;;;;;;17.48;100.00;93114.03;5088541;28;20189;-79
2023/09/21 01:10:11;;;;;;;14.23;12.87;;;;;;;17.38;100.00;93114.31;5088935;28;20252;-81
2023/09/21 01:12:37;;;;;;;13.47;12.10;;;;;;;17.30;100.00;93096.59;5090175;28;20228;-81
2023/09/21 01:15:05;;;;;;;12.80;11.80;;;;;;;17.32;100.00;93099.69;5092971;28;20197;-82
2023/09/21 01:17:31;;;;;;;14.87;12.93;;;;;;;17.09;100.00;93089.56;5092789;28;20178;-79
2023/09/21 01:19:57;;;;;;;16.87;12.90;;;;;;;17.27;100.00;93091.13;5092780;28;20288;-80
2023/09/21 01:22:26;;;;;;;16.10;13.60;;;;;;;17.30;100.00;93090.53;5093020;28;20252;-81
2023/09/21 01:24:52;;;;;;;17.47;13.50;;;;;;;17.27;100.00;93081.38;5092801;28;20254;-81
2023/09/21 01:27:18;;;;;;;15.50;13.00;;;;;;;17.26;100.00;93077.16;5092703;28;20212;-82
2023/09/21 01:29:44;;;;;;;21.83;13.57;;;;;;;17.26;100.00;93077.16;5092593;28;20221;-82
2023/09/21 01:32:09;;;;;;;14.13;12.83;;;;;;;17.08;100.00;93051.03;5093021;28;20257;-82
2023/09/21 01:34:36;;;;;;;14.77;13.30;;;;;;;17.20;100.00;93070.47;5092288;28;20237;-79
2023/09/21 01:37:01;;;;;;;14.83;13.30;;;;;;;17.25;100.00;93064.28;5092707;28;20294;-79
2023/09/21 01:39:27;;;;;;;16.67;13.07;;;;;;;17.41;100.00;93070.66;5092125;28;20220;-81
2023/09/21 01:41:53;;;;;;;15.33;13.57;;;;;;;17.13;100.00;93064.88;5075064;28;20181;-81
2023/09/21 01:44:22;;;;;;;15.97;12.93;;;;;;;17.12;100.00;93065.19;5091795;28;20303;-81
2023/09/21 01:46:49;;;;;;;15.00;13.57;;;;;;;17.00;100.00;93057.84;5092485;28;20265;-81
2023/09/21 01:49:15;;;;;;;15.53;14.00;;;;;;;17.09;100.00;93060.53;5091586;28;21047;-81
2023/09/21 01:51:41;;;;;;;15.93;13.93;;;;;;;16.94;100.00;93074.13;5092204;28;20268;-81
2023/09/21 01:54:07;;;;;;;17.10;14.43;;;;;;;16.91;100.00;93066.81;5091834;28;20285;-81
2023/09/21 01:56:34;;;;;;;17.60;13.67;;;;;;;16.88;100.00;93064.78;5092720;28;20886;-78
2023/09/21 01:59:00;;;;;;;17.10;14.57;;;;;;;16.89;100.00;93043.38;5091333;28;20212;-80
2023/09/21 02:01:25;;;;;;;17.17;14.10;;;;;;;16.99;100.00;93048.41;5092512;28;20185;-81
2023/09/21 02:03:55;;;;;;;15.47;13.97;;;;;;;16.90;100.00;93029.09;5091411;28;20259;-81
2023/09/21 02:06:21;;;;;;;17.50;13.53;;;;;;;16.90;100.00;93020.44;5074280;28;20197;-79
2023/09/21 02:08:46;;;;;;;17.00;13.83;;;;;;;16.84;100.00;93030.34;5091645;28;20228;-81
2023/09/21 02:11:12;;;;;;;14.67;13.43;;;;;;;17.05;100.00;93017.38;5091881;28;20215;-81
2023/09/21 02:13:38;;;;;;;14.83;13.33;;;;;;;17.08;100.00;93014.91;5077703;28;20228;-81
2023/09/21 02:16:03;;;;;;;14.07;12.97;;;;;;;17.00;100.00;93022.78;5091748;28;20220;-81
2023/09/21 02:18:30;;;;;;;15.67;13.97;;;;;;;16.97;100.00;93018.91;5082527;28;20221;-81
2023/09/21 02:20:55;;;;;;;15.63;13.80;;;;;;;16.95;100.00;93009.75;5071510;28;20214;-80
2023/09/21 02:23:22;;;;;;;15.37;14.03;;;;;;;16.97;100.00;93004.94;5072072;28;20220;-80
2023/09/21 02:25:47;;;;;;;16.60;13.87;;;;;;;16.97;100.00;92997.00;5071670;28;20177;-80
2023/09/21 02:28:13;;;;;;;15.07;13.27;;;;;;;16.92;100.00;93005.84;5090091;28;20246;-80
2023/09/21 02:30:46;;;;;;;15.13;13.93;;;;;;;17.05;100.00;93010.22;5091919;28;20210;-80
2023/09/21 02:33:12;;;;;;;15.40;14.10;;;;;;;17.09;100.00;93015.69;5078442;28;20919;-80
2023/09/21 02:35:41;;;;;;;16.33;13.87;;;;;;;17.10;100.00;93017.22;5091252;28;20205;-81
2023/09/21 02:38:09;;;;;;;14.80;13.47;;;;;;;17.16;100.00;93005.44;5085558;28;20229;-81
2023/09/21 02:40:34;;;;;;;16.00;14.30;;;;;;;17.05;100.00;93012.88;5070877;28;20178;-81
2023/09/21 02:43:00;;;;;;;16.10;14.50;;;;;;;16.80;100.00;93018.06;5070731;28;20259;-81
2023/09/21 02:45:25;;;;;;;16.03;14.10;;;;;;;16.74;100.00;93022.72;5070884;28;20187;-82
2023/09/21 02:47:54;;;;;;;14.73;13.37;;;;;;;16.87;100.00;93013.91;5077115;28;20224;-81
2023/09/21 02:50:25;;;;;;;14.87;13.47;;;;;;;17.04;100.00;93029.75;5096616;28;20182;-80
2023/09/21 02:53:01;;;;;;;14.93;13.17;;;;;;;17.05;100.00;93023.44;5091199;28;20262;-81
2023/09/21 02:55:27;;;;;;;15.20;13.90;;;;;;;16.93;100.00;93017.19;5091107;28;20250;-80
2023/09/21 02:57:57;;;;;;;17.13;14.17;;;;;;;16.94;100.00;93024.00;5087599;28;20222;-81
2023/09/21 03:02:54;;;;;;;15.53;13.93;;;;;;;16.85;100.00;93021.34;5073930;28;20239;-81
2023/09/21 03:05:19;;;;;;;17.70;14.30;;;;;;;16.88;100.00;93020.75;5091170;28;20185;-81
2023/09/21 03:07:45;;;;;;;17.90;13.80;;;;;;;16.79;100.00;93019.94;5090525;28;20196;-80
2023/09/21 03:10:11;;;;;;;14.23;12.90;;;;;;;16.72;100.00;93016.97;5071676;28;20216;-74
2023/09/21 03:12:38;;;;;;;15.37;13.97;;;;;;;16.65;100.00;93021.91;5071470;28;20228;-73
2023/09/21 03:15:15;;;;;;;15.10;13.70;;;;;;;16.57;100.00;93030.56;5090834;28;20216;-74
2023/09/21 03:17:45;;;;;;;15.63;14.10;;;;;;;16.49;100.00;93027.88;5090473;28;20211;-73
2023/09/21 03:20:12;;;;;;;14.60;13.20;;;;;;;16.27;100.00;93041.88;5090814;28;20211;-74
2023/09/21 03:22:39;;;;;;;23.07;15.17;;;;;;;16.26;100.00;93045.59;5090403;28;20190;-73
2023/09/21 03:25:11;;;;;;;16.37;14.63;;;;;;;16.15;100.00;93044.28;5090884;28;20181;-73
2023/09/21 03:27:39;;;;;;;16.83;15.23;;;;;;;16.31;100.00;93050.72;5090256;28;20199;-74
2023/09/21 03:30:06;;;;;;;16.30;14.47;;;;;;;16.30;100.00;93046.53;5106716;28;20208;-74
2023/09/21 03:32:31;;;;;;;18.40;16.27;;;;;;;16.42;100.00;93043.34;5090365;28;20181;-74
2023/09/21 03:34:57;;;;;;;16.73;14.93;;;;;;;16.44;100.00;93060.44;5090075;28;20219;-74
2023/09/21 03:37:24;;;;;;;18.53;16.70;;;;;;;16.46;100.00;93055.63;5090393;28;20205;-73
2023/09/21 03:39:49;;;;;;;24.30;15.83;;;;;;;16.48;100.00;93048.22;5089832;28;20246;-73
2023/09/21 03:42:15;;;;;;;20.13;16.13;;;;;;;16.41;100.00;93023.31;5090432;28;20212;-73
2023/09/21 03:44:42;;;;;;;19.67;15.97;;;;;;;16.43;100.00;93035.13;5089720;28;20221;-73
2023/09/21 03:47:11;;;;;;;20.30;15.33;;;;;;;16.45;100.00;93027.72;5090268;28;20190;-72
2023/09/21 03:49:37;;;;;;;18.07;16.17;;;;;;;16.31;100.00;93011.19;5072108;28;20216;-77
2023/09/21 03:52:03;;;;;;;20.37;18.13;;;;;;;16.41;100.00;93024.09;5087233;28;20188;-78
2023/09/21 03:54:28;;;;;;;21.43;15.80;;;;;;;16.31;100.00;93015.69;5087727;28;20254;-77
2023/09/21 03:56:54;;;;;;;16.80;15.03;;;;;;;16.39;100.00;93028.13;5068732;28;20217;-73
2023/09/21 03:59:19;;;;;;;17.30;15.60;;;;;;;16.33;100.00;93009.03;5082356;28;20225;-77
2023/09/21 04:01:46;;;;;;;17.53;15.13;;;;;;;16.39;100.00;93022.88;5074667;28;20188;-75
2023/09/21 04:04:17;;;;;;;17.17;15.33;;;;;;;16.31;100.00;93026.22;5071690;28;20232;-76
2023/09/21 04:06:44;;;;;;;17.03;15.27;;;;;;;16.41;100.00;93037.28;5076675;28;20224;-81
2023/09/21 04:09:09;;;;;;;15.87;14.37;;;;;;;16.28;100.00;93032.09;5058524;28;20247;-78
2023/09/21 04:11:35;;;;;;;16.97;15.43;;;;;;;16.36;100.00;93037.41;5068400;28;20197;-78
2023/09/21 04:14:01;;;;;;;17.13;14.63;;;;;;;16.18;100.00;93027.88;5064072;28;20460;-75
2023/09/21 04:16:27;;;;;;;17.97;16.30;;;;;;;16.37;100.00;93048.75;5068161;28;20209;-78
2023/09/21 04:18:54;;;;;;;16.40;14.70;;;;;;;16.35;100.00;93049.03;5079984;28;20288;-78
2023/09/21 04:21:20;;;;;;;16.37;14.63;;;;;;;16.39;100.00;93042.06;5088436;28;20197;-77
2023/09/21 04:23:46;;;;;;;17.23;15.37;;;;;;;16.26;100.00;93042.16;5087913;28;20223;-86
2023/09/21 04:26:12;;;;;;;20.13;16.13;;;;;;;16.33;100.00;93048.56;5086683;28;20168;-83
2023/09/21 04:28:37;;;;;;;21.60;16.43;;;;;;;16.29;100.00;93039.72;5086124;28;20257;-82
2023/09/21 04:31:02;;;;;;;22.13;16.27;;;;;;;16.32;100.00;93039.09;5087667;28;20187;-82
2023/09/21 04:33:28;;;;;;;18.67;16.07;;;;;;;16.41;100.00;93042.56;5088627;28;20296;-93
2023/09/21 04:35:53;;;;;;;19.40;16.33;;;;;;;16.45;100.00;93030.34;5083655;28;20272;-91
2023/09/21 04:38:18;;;;;;;20.03;16.60;;;;;;;16.26;100.00;92995.53;5084191;28;20225;-92
2023/09/21 04:40:46;;;;;;;17.77;15.77;;;;;;;16.65;100.00;93021.91;5088827;28;20184;-93
2023/09/21 04:43:13;;;;;;;21.07;16.37;;;;;;;16.63;100.00;93029.34;5088801;28;20233;-92
2023/09/21 04:45:38;;;;;;;18.17;16.30;;;;;;;16.63;100.00;93023.28;5089664;28;20205;-93
2023/09/21 04:48:04;;;;;;;23.07;15.47;;;;;;;16.75;100.00;93010.28;5088146;28;20227;-92
2023/09/21 04:50:29;;;;;;;22.00;14.50;;;;;;;16.94;100.00;93030.06;5084707;28;20183;-92
2023/09/21 04:52:55;;;;;;;25.07;14.90;;;;;;;17.03;100.00;93032.72;5084483;28;20220;-93
2023/09/21 04:55:21;;;;;;;22.97;16.83;;;;;;;17.08;100.00;93035.22;5088174;28;20182;-92
2023/09/21 04:57:46;;;;;;;18.70;16.13;;;;;;;17.01;100.00;93034.91;5087994;28;20733;-92
2023/09/21 05:00:14;;;;;;;18.77;16.03;;;;;;;17.08;100.00;93049.19;5088850;28;20173;-95
2023/09/21 05:02:40;;;;;;;26.33;15.43;;;;;;;17.00;100.00;93039.38;5089047;28;20208;-92
2023/09/21 05:05:06;;;;;;;19.57;15.50;;;;;;;17.02;100.00;93039.88;5089002;28;20184;-92
2023/09/21 05:07:31;;;;;;;18.67;16.13;;;;;;;17.26;100.00;93042.84;5088204;28;20264;-83
2023/09/21 05:09:57;;;;;;;22.23;15.63;;;;;;;17.34;100.00;93042.09;5088739;28;20204;-90
2023/09/21 05:12:22;;;;;;;26.63;15.73;;;;;;;17.46;100.00;93047.56;5089259;28;20216;-92
2023/09/21 05:14:48;;;;;;;28.70;17.47;;;;;;;17.55;100.00;93056.28;5086247;28;20226;-90
2023/09/21 05:17:14;;;;;;;18.23;16.33;;;;;;;17.62;100.00;93060.31;5088279;28;20212;-91
2023/09/21 05:19:41;;;;;;;23.67;16.23;;;;;;;17.70;100.00;93067.47;5087102;28;20246;-92
2023/09/21 05:22:06;;;;;;;18.87;16.67;;;;;;;17.85;100.00;93061.72;5088720;28;20220;-80
2023/09/21 05:24:32;;;;;;;20.70;16.73;;;;;;;17.72;100.00;93066.06;5085377;28;20214;-80
2023/09/21 05:26:58;;;;;;;22.23;16.83;;;;;;;17.88;100.00;93066.38;5088788;28;20223;-75
2023/09/21 05:29:24;;;;;;;18.67;16.93;;;;;;;18.21;100.00;93072.72;5080401;28;20226;-75
2023/09/21 05:31:50;;;;;;;21.93;17.93;;;;;;;18.23;100.00;93046.75;5080145;28;20182;-76
2023/09/21 05:34:16;;;;;;;18.90;16.90;;;;;;;18.15;100.00;93052.84;5087067;28;20218;-75
2023/09/21 05:36:45;;;;;;;18.43;16.70;;;;;;;18.28;100.00;93041.28;5087347;28;20213;-76
2023/09/21 05:39:11;;;;;;;18.67;16.57;;;;;;;18.68;100.00;93047.88;5087083;28;20241;-78
2023/09/21 05:41:37;;;;;;;17.90;15.77;;;;;;;18.85;100.00;93039.88;5085357;28;20191;-79
2023/09/21 05:44:02;;;;;;;20.43;15.87;;;;;;;18.90;100.00;93048.44;5075620;28;20286;-80
2023/09/21 05:46:28;;;;;;;23.67;15.97;;;;;;;19.15;100.00;93052.81;5071936;28;20182;-74
2023/09/21 05:48:53;;;;;;;17.20;14.57;;;;;;;19.17;100.00;93045.31;5090556;28;20222;-72
2023/09/21 05:51:18;;;;;;;18.23;15.90;;;;;;;19.41;100.00;93057.22;5084915;28;20198;-73
2023/09/21 05:53:45;;;;;;;23.70;16.50;;;;;;;19.00;100.00;93045.41;5082241;28;20310;-73
2023/09/21 05:56:11;;;;;;;17.33;15.27;;;;;;;19.41;100.00;93054.56;5086690;28;20239;-73
2023/09/21 05:58:37;;;;;;;20.33;15.63;;;;;;;19.09;100.00;93046.16;5086522;28;20257;-78
2023/09/21 06:01:02;;;;;;;17.67;15.33;;;;;;;19.57;99.85;93052.88;5081780;28;20697;-77
2023/09/21 06:03:28;;;;;;;19.83;16.03;;;;;;;19.61;99.10;93054.56;5089636;28;20234;-78
2023/09/21 06:05:54;;;;;;;17.07;15.23;;;;;;;19.12;100.00;93056.09;5087021;28;20186;-79
2023/09/21 06:08:19;;;;;;;18.63;15.60;;;;;;;19.50;100.00;93064.03;5087571;28;20230;-79
2023/09/21 06:10:48;;;;;;;17.60;15.73;;;;;;;19.37;100.00;93065.03;5073518;28;20182;-79
2023/09/21 06:13:14;;;;;;;19.13;16.43;;;;;;;19.13;100.00;93064.81;5083308;28;20273;-79
2023/09/21 06:15:46;;;;;;;23.30;16.03;;;;;;;18.74;100.00;93055.34;5089913;28;20203;-79
2023/09/21 06:18:12;;;;;;;19.90;16.47;;;;;;;19.10;100.00;93055.66;5088729;28;20257;-79
2023/09/21 06:20:38;;;;;;;21.47;16.37;;;;;;;19.48;100.00;93074.16;5081377;28;20191;-82
2023/09/21 06:23:06;;;;;;;26.40;18.13;;;;;;;19.42;100.00;93072.00;5086413;28;20337;-78
2023/09/21 06:25:32;;;;;;;26.43;17.23;;;;;;;19.74;100.00;93085.34;5090001;28;20183;-79
2023/09/21 06:27:57;;;;;;;23.30;16.83;;;;;;;20.19;98.92;93083.59;5090003;28;20288;-79
2023/09/21 06:30:23;;;;;;;21.23;16.07;;;;;;;20.51;94.93;93085.47;5090986;28;20192;-79
2023/09/21 06:32:49;;;;;;;21.70;16.90;;;;;;;20.40;96.56;93079.06;5090575;28;20328;-79
2023/09/21 06:35:14;;;;;;;23.27;16.03;;;;;;;20.34;97.47;93074.28;5090856;28;20191;-79
2023/09/21 06:37:40;;;;;;;17.80;15.98;;;;;;;20.55;95.12;93080.31;5090129;28;20183;-79
2023/09/21 06:40:06;;;;;;;20.90;18.50;;;;;;;20.87;92.85;93076.84;5072145;28;20207;-80
2023/09/21 06:42:32;;;;;;;18.03;16.23;;;;;;;20.80;92.66;93070.50;5079804;28;20183;-78
2023/09/21 06:44:57;;;;;;;19.52;16.83;;;;;;;20.26;96.24;93073.25;5090133;28;20220;-77
2023/09/21 06:47:26;;;;;;;24.42;18.08;;;;;;;20.57;95.45;93075.44;5089130;28;20218;-76
2023/09/21 06:49:53;;;;;;;18.58;16.75;;;;;;;20.62;93.17;93073.34;5089125;28;20227;-79
2023/09/21 06:52:21;;;;;;;16.53;14.90;;;;;;;20.34;95.42;93064.44;5088504;28;20193;-81
2023/09/21 06:54:48;;;;;;;14.37;12.97;;;;;;;20.52;88.22;93071.13;5080078;28;20220;-82
2023/09/21 06:57:15;;;;;;;15.27;13.97;;;;;;;20.36;90.13;93074.72;5073140;28;20234;-82
2023/09/21 06:59:41;;;;;;;22.00;16.37;;;;;;;20.33;91.92;93078.81;5087673;28;20231;-80
2023/09/21 07:02:07;;;;;;;15.90;13.85;;;;;;;20.20;90.54;93074.53;5090263;28;20202;-80
2023/09/21 07:04:33;;;;;;;14.67;13.17;;;;;;;20.43;89.63;93069.66;5089660;28;20216;-79
2023/09/21 07:07:05;;;;;;;15.45;13.82;;;;;;;20.88;86.18;93078.38;5089864;28;20207;-80
2023/09/21 07:09:37;;;;;;;14.05;12.38;;;;;;;20.76;84.19;93064.31;5088626;28;20392;-78
2023/09/21 07:12:03;;;;;;;14.02;12.52;;;;;;;20.92;85.75;93073.19;5086508;28;20187;-78
2023/09/21 07:14:30;;;;;;;15.57;13.40;;;;;;;21.29;85.54;93075.53;5088723;28;20253;-81
2023/09/21 07:16:56;;;;;;;14.23;12.90;;;;;;;21.50;81.46;93078.09;5088264;28;20219;-83
2023/09/21 07:19:22;;;;;;;13.98;12.55;;;;;;;21.33;81.68;93065.03;5089747;28;20227;-82
2023/09/21 07:21:47;;;;;;;14.50;12.68;;;;;;;20.97;81.36;93043.78;5088979;28;20181;-82
2023/09/21 07:24:13;;;;;;;12.70;11.68;;;;;;;21.13;79.78;93077.34;5089061;28;20224;-80
2023/09/21 07:26:38;;;;;;;16.77;11.27;;;;;;;21.24;80.04;93072.34;5089559;28;20212;-80
2023/09/21 07:29:07;;;;;;;14.55;11.82;;;;;;;21.54;80.43;93089.59;5089566;28;20291;-77
2023/09/21 07:31:33;;;;;;;13.05;11.68;;;;;;;21.33;81.70;93091.59;5088734;28;20225;-78
2023/09/21 07:34:02;;;;;;;17.52;12.80;;;;;;;20.99;84.53;93089.38;5089253;28;20229;-78
2023/09/21 07:36:27;;;;;;;16.42;13.02;;;;;;;21.48;82.76;93096.25;5088981;28;20201;-78
2023/09/21 07:38:55;;;;;;;16.45;12.82;;;;;;;21.90;80.85;93094.88;5089402;28;20225;-79
2023/09/21 07:41:20;;;;;;;15.82;12.40;;;;;;;21.72;78.01;93083.72;5089827;28;20186;-77
2023/09/21 07:43:46;;;;;;;18.48;13.50;;;;;;;21.55;80.53;93075.19;5089355;28;20216;-78
2023/09/21 07:46:12;;;;;;;14.90;12.63;;;;;;;21.49;81.50;93087.16;5090392;28;20250;-79
2023/09/21 07:48:37;;;;;;;19.08;13.95;;;;;;;21.44;82.08;93108.66;5089375;28;20213;-78
2023/09/21 07:51:07;;;;;;;19.42;13.10;;;;;;;21.18;82.41;93102.91;5090051;28;21160;-78
2023/09/21 07:53:33;;;;;;;18.15;12.75;;;;;;;21.52;81.51;93094.47;5089390;28;20225;-77
2023/09/21 07:56:01;;;;;;;14.18;12.73;;;;;;;21.17;81.95;93058.88;5090155;28;20215;-76
2023/09/21 07:58:27;;;;;;;15.63;11.57;;;;;;;21.88;78.63;93099.78;5089393;28;20229;-80
2023/09/21 08:00:55;;;;;;;14.27;12.88;;;;;;;21.73;78.27;93095.88;5086869;28;20181;-86
2023/09/21 08:03:25;;;;;;;16.95;11.75;;;;;;;21.64;78.49;93075.84;5085244;28;20282;-76
2023/09/21 08:05:51;;;;;;;13.02;11.73;;;;;;;21.75;76.99;93088.38;5089415;28;20190;-79
2023/09/21 08:08:16;;;;;;;14.15;11.95;;;;;;;21.67;78.70;93093.78;5085902;28;20994;-81
2023/09/21 08:10:42;;;;;;;15.75;12.70;;;;;;;21.77;77.17;93090.72;5081456;28;20273;-76
2023/09/21 08:13:08;;;;;;;17.25;12.77;;;;;;;21.23;82.45;93092.81;5080288;28;20245;-78
2023/09/21 08:15:33;;;;;;;18.95;12.48;;;;;;;21.42;80.46;93078.97;5087403;28;20178;-77
2023/09/21 08:18:00;;;;;;;15.82;12.57;;;;;;;21.90;77.33;93095.66;5086149;28;20223;-77
2023/09/21 08:20:26;;;;;;;12.68;11.48;;;;;;;21.65;77.55;93042.88;5088584;28;20196;-77
2023/09/21 08:22:51;;;;;;;20.48;13.18;;;;;;;21.80;78.05;93101.47;5086203;28;20226;-77
2023/09/21 08:25:17;;;;;;;14.52;12.20;;;;;;;21.74;78.05;93099.31;5076949;28;20220;-76
2023/09/21 08:27:42;;;;;;;14.60;13.20;;;;;;;21.65;78.45;93101.34;5085546;28;20194;-77
2023/09/21 08:30:08;;;;;;;14.73;13.10;;;;;;;21.53;79.42;93096.00;5088518;28;20194;-76
2023/09/21 08:32:33;;;;;;;16.10;13.18;;;;;;;21.52;80.56;93097.13;5086446;28;20218;-79
2023/09/21 08:34:59;;;;;;;14.55;12.30;;;;;;;21.46;80.83;93101.13;5088625;28;20194;-77
2023/09/21 08:37:24;;;;;;;15.45;12.98;;;;;;;21.43;80.05;93104.44;5087367;28;20210;-76
2023/09/21 08:39:50;;;;;;;17.95;13.00;;;;;;;21.24;81.54;93105.00;5080626;28;20226;-78
2023/09/21 08:42:15;;;;;;;17.75;12.98;;;;;;;21.38;81.32;93109.97;5088222;28;20189;-79
2023/09/21 08:44:43;;;;;;;18.50;13.55;;;;;;;21.00;82.74;93112.16;5069718;28;20244;-78
2023/09/21 08:47:13;;;;;;;18.35;14.15;;;;;;;21.20;81.22;93109.41;5065073;28;20261;-78
2023/09/21 08:49:45;;;;;;;16.77;14.65;;;;;;;20.76;84.51;93112.88;5078477;28;20226;-75
2023/09/21 08:52:12;;;;;;;14.38;12.85;;;;;;;20.89;84.22;93113.69;5076137;28;20193;-78
2023/09/21 08:54:40;;;;;;;16.58;13.38;;;;;;;20.84;83.48;93108.56;5084833;28;20242;-78
2023/09/21 08:57:09;;;;;;;14.52;13.10;;;;;;;20.76;83.25;93112.09;5078030;28;20212;-77
2023/09/21 08:59:42;;;;;;;18.80;13.55;;;;;;;21.11;82.93;93097.34;5080965;28;20221;-78
2023/09/21 09:02:12;;;;;;;14.45;12.88;;;;;;;21.06;83.61;93108.97;5084199;28;20196;-78
2023/09/21 09:04:40;;;;;;;17.27;13.95;;;;;;;21.10;84.13;93109.06;5083461;28;20316;-78
2023/09/21 09:07:06;;;;;;;16.33;13.10;;;;;;;21.28;81.77;93110.41;5081960;28;20191;-78
2023/09/21 09:09:31;;;;;;;15.75;13.43;;;;;;;21.41;79.65;93101.34;5078580;28;20227;-76
2023/09/21 09:11:57;;;;;;;20.25;13.73;;;;;;;21.24;81.65;93101.56;5087485;28;20174;-78
2023/09/21 09:14:22;;;;;;;17.25;12.77;;;;;;;21.38;82.52;93096.69;5086755;28;20221;-76
2023/09/21 09:16:49;;;;;;;20.13;12.93;;;;;;;21.52;81.24;93097.91;5087502;28;20261;-78
2023/09/21 09:19:15;;;;;;;17.90;12.90;;;;;;;21.82;81.69;93095.81;5086786;28;20255;-81
2023/09/21 09:21:41;;;;;;;17.45;13.27;;;;;;;22.10;78.36;93080.66;5084552;28;20179;-82
2023/09/21 09:24:08;;;;;;;16.65;13.63;;;;;;;22.18;77.12;93101.00;5072281;28;20299;-83
2023/09/21 09:26:36;;;;;;;14.55;13.05;;;;;;;22.05;77.91;93096.84;5068214;28;20255;-83
2023/09/21 09:29:06;;;;;;;17.15;14.02;;;;;;;21.86;80.19;93094.78;5080316;28;20238;-83
2023/09/21 09:31:32;;;;;;;14.98;13.38;;;;;;;21.77;78.85;93045.53;5084578;28;21018;-84
2023/09/21 09:34:00;;;;;;;15.18;12.95;;;;;;;21.76;80.12;93081.19;5090269;28;20228;-83
2023/09/21 09:36:25;;;;;;;22.02;13.00;;;;;;;22.15;79.73;93080.41;5088483;28;20226;-83
2023/09/21 09:38:52;;;;;;;15.05;13.55;;;;;;;21.96;80.92;93096.22;5065779;28;20250;-82
2023/09/21 09:41:18;;;;;;;18.25;12.93;;;;;;;22.18;78.94;93093.81;5077862;28;20205;-86
2023/09/21 09:43:50;;;;;;;18.73;13.68;;;;;;;22.26;78.70;93083.38;5086728;28;20274;-81
2023/09/21 09:46:20;;;;;;;14.63;12.30;;;;;;;22.27;78.40;93080.38;5076493;28;20193;-76
2023/09/21 09:48:47;;;;;;;14.88;12.25;;;;;;;22.43;79.16;93078.53;5090885;28;20257;-79
2023/09/21 09:51:16;;;;;;;15.00;13.38;;;;;;;22.31;79.01;93081.25;5063343;28;20204;-74
2023/09/21 09:53:42;;;;;;;16.35;12.25;;;;;;;22.27;77.39;93077.72;5083877;28;20300;-73
2023/09/21 09:56:10;;;;;;;18.20;11.95;;;;;;;22.23;76.76;93074.94;5087756;28;20221;-74
2023/09/21 09:58:42;;;;;;;12.93;11.73;;;;;;;22.36;77.94;93082.88;5091208;28;20226;-73
2023/09/21 10:01:12;;;;;;;13.57;11.85;;;;;;;22.77;76.00;93087.81;5086106;28;20190;-74
2023/09/21 10:03:38;;;;;;;12.40;11.18;;;;;;;22.42;76.64;93065.56;5084642;28;20223;-73
2023/09/21 10:06:09;;;;;;;12.35;11.20;;;;;;;22.84;75.59;93077.34;5088854;28;20180;-73
2023/09/21 10:08:39;;;;;;;12.45;11.43;;;;;;;22.81;76.75;93084.13;5086570;28;20219;-78
2023/09/21 10:11:07;;;;;;;12.13;11.00;;;;;;;23.38;75.59;93079.09;5089033;28;20188;-76
2023/09/21 10:13:34;;;;;;;14.75;13.13;;;;;;;23.25;72.15;93084.88;5085998;28;20227;-78
2023/09/21 10:16:05;;;;;;;12.93;11.30;;;;;;;22.75;72.23;93076.72;5085805;28;20219;-79
2023/09/21 10:18:38;;;;;;;14.65;11.48;;;;;;;23.50;71.61;93078.97;5088521;28;20230;-78
2023/09/21 10:21:16;;;;;;;12.40;11.27;;;;;;;23.84;67.59;93082.78;5091076;28;20195;-79
2023/09/21 10:24:03;;;;;;;11.93;10.75;;;;;;;23.71;69.38;93084.81;5086949;28;20227;-79
2023/09/21 10:26:38;;;;;;;14.35;10.93;;;;;;;23.66;69.30;93077.06;5077953;28;20216;-78
2023/09/21 10:29:07;;;;;;;12.05;11.05;;;;;;;23.53;67.72;93082.84;5087649;28;20225;-78
2023/09/21 10:31:36;;;;;;;12.77;11.57;;;;;;;23.28;70.53;93071.63;5090164;28;20183;-77
2023/09/21 10:34:02;;;;;;;11.75;10.65;;;;;;;23.56;68.83;93077.59;5089730;28;20308;-76
2023/09/21 10:36:28;;;;;;;12.45;11.25;;;;;;;23.40;68.07;93068.88;5096210;28;20220;-77
2023/09/21 10:39:06;;;;;;;13.93;12.10;;;;;;;23.21;70.19;93060.75;5071837;28;20235;-76
2023/09/21 10:41:35;;;;;;;15.38;12.02;;;;;;;23.12;68.92;93065.50;5070121;28;20252;-79
2023/09/21 10:44:02;;;;;;;12.30;11.23;;;;;;;22.83;71.10;93065.94;5063923;28;20216;-78
2023/09/21 10:46:33;;;;;;;13.60;12.02;;;;;;;23.21;69.53;93059.97;5063136;28;20174;-77
2023/09/21 10:49:03;;;;;;;12.55;11.50;;;;;;;23.24;70.01;93062.75;5066902;28;20223;-77
2023/09/21 10:51:29;;;;;;;14.23;12.23;;;;;;;23.22;71.04;93056.97;5069832;28;20205;-76
2023/09/21 10:53:58;;;;;;;12.45;11.23;;;;;;;23.18;72.63;93053.47;5069545;28;20223;-76
2023/09/21 10:56:25;;;;;;;13.75;12.15;;;;;;;23.29;72.23;93051.84;5070193;28;20263;-75
2023/09/21 10:58:50;;;;;;;13.95;11.80;;;;;;;23.35;68.86;93045.13;5080934;28;20298;-77
2023/09/21 11:01:17;;;;;;;12.25;11.23;;;;;;;23.40;71.04;93046.75;5086411;28;20191;-77
2023/09/21 11:03:42;;;;;;;14.05;12.65;;;;;;;22.87;72.75;93055.34;5078468;28;20235;-74
2023/09/21 11:06:08;;;;;;;14.40;12.85;;;;;;;22.50;74.80;93043.34;5082521;28;20204;-79
2023/09/21 11:08:34;;;;;;;14.02;12.63;;;;;;;22.27;74.16;93037.03;5078720;28;20429;-80
2023/09/21 11:10:59;;;;;;;13.48;12.23;;;;;;;23.06;72.15;93031.47;5069823;28;20181;-81
2023/09/21 11:13:27;;;;;;;17.17;15.27;;;;;;;23.14;71.63;93036.63;5066955;28;20228;-78